createdAt,value
2022-11-04T00:00:12.676Z,8.83
2022-11-04T00:02:39.525Z,9.40
2022-11-04T00:05:06.516Z,8.53
2022-11-04T00:07:51.831Z,8.03
2022-11-04T00:10:38.490Z,7.33
2022-11-04T00:13:05.469Z,7.00
2022-11-04T00:15:55.720Z,7.43
2022-11-04T00:18:22.523Z,6.07
2022-11-04T00:21:07.627Z,5.60
2022-11-04T00:23:53.206Z,5.47
2022-11-04T00:26:38.626Z,5.43
2022-11-04T00:29:05.339Z,6.70
2022-11-04T00:31:50.623Z,7.53
2022-11-04T00:34:17.438Z,6.03
2022-11-04T00:36:44.168Z,4.10
2022-11-04T00:39:10.923Z,4.03
2022-11-04T00:41:37.598Z,5.47
2022-11-04T00:44:05.457Z,2.80
2022-11-04T00:46:33.532Z,4.50
2022-11-04T00:49:00.610Z,4.47
2022-11-04T00:51:27.761Z,4.20
2022-11-04T00:53:54.888Z,3.60
2022-11-04T00:56:21.893Z,5.67
2022-11-04T00:58:50.262Z,5.53
2022-11-04T01:01:19.094Z,3.80
2022-11-04T01:03:51.122Z,5.00
2022-11-04T01:06:19.017Z,5.10
2022-11-04T01:08:46.368Z,2.77
2022-11-04T01:11:13.674Z,3.70
2022-11-04T01:13:40.871Z,3.20
2022-11-04T01:16:09.968Z,2.70
2022-11-04T01:18:37.534Z,6.20
2022-11-04T01:21:05.959Z,2.70
2022-11-04T01:23:34.925Z,3.23
2022-11-04T01:26:01.747Z,3.07
2022-11-04T01:28:28.672Z,2.50
2022-11-04T01:30:55.361Z,2.23
2022-11-04T01:33:22.067Z,2.10
2022-11-04T01:35:48.772Z,5.60
2022-11-04T01:38:15.496Z,4.30
2022-11-04T01:40:42.251Z,3.50
2022-11-04T01:43:16.107Z,1.40
2022-11-04T01:45:48.724Z,1.37
2022-11-04T01:48:22.245Z,3.70
2022-11-04T01:50:51.757Z,1.20
2022-11-04T01:53:30.595Z,1.90
2022-11-04T01:55:59.417Z,1.93
2022-11-04T01:58:29.794Z,1.47
2022-11-04T02:00:56.546Z,1.23
2022-11-04T02:03:35.204Z,1.50
2022-11-04T02:06:03.015Z,2.07
2022-11-04T02:08:29.954Z,1.80
2022-11-04T02:10:59.789Z,1.37
2022-11-04T02:13:32.412Z,1.40
2022-11-04T02:16:21.600Z,1.20
2022-11-04T02:18:57.511Z,1.53
2022-11-04T02:21:30.006Z,1.57
2022-11-04T02:24:05.246Z,1.23
2022-11-04T02:26:38.034Z,1.27
2022-11-04T02:29:19.568Z,1.80
2022-11-04T02:32:03.398Z,1.97
2022-11-04T02:34:43.325Z,1.57
2022-11-04T02:37:15.133Z,1.77
2022-11-04T02:39:49.450Z,1.50
2022-11-04T02:42:42.166Z,1.37
2022-11-04T02:45:23.094Z,2.43
2022-11-04T02:47:56.449Z,1.83
2022-11-04T02:50:41.991Z,1.80
2022-11-04T02:53:14.609Z,1.50
2022-11-04T02:55:46.867Z,1.77
2022-11-04T02:58:21.729Z,1.67
2022-11-04T03:00:51.959Z,1.30
2022-11-04T03:03:25.880Z,1.10
2022-11-04T03:05:55.621Z,1.43
2022-11-04T03:08:33.372Z,0.80
2022-11-04T03:11:11.973Z,1.70
2022-11-04T03:13:41.519Z,2.87
2022-11-04T03:16:14.270Z,1.30
2022-11-04T03:18:55.335Z,0.70
2022-11-04T03:21:24.317Z,0.80
2022-11-04T03:23:51.132Z,0.90
2022-11-04T03:26:59.485Z,1.17
2022-11-04T03:29:42.320Z,1.10
2022-11-04T03:32:26.727Z,0.93
2022-11-04T03:34:53.675Z,1.47
2022-11-04T03:37:20.431Z,1.20
2022-11-04T03:39:47.331Z,1.17
2022-11-04T03:42:20.992Z,0.60
2022-11-04T03:44:53.606Z,0.90
2022-11-04T03:47:24.476Z,1.63
2022-11-04T03:49:56.142Z,0.70
2022-11-04T03:52:23.085Z,0.77
2022-11-04T03:54:49.932Z,0.83
2022-11-04T03:57:20.421Z,3.30
2022-11-04T03:59:56.153Z,1.67
2022-11-04T04:02:46.761Z,0.93
2022-11-04T04:05:38.188Z,1.13
2022-11-04T04:08:11.327Z,0.80
2022-11-04T04:10:41.951Z,2.70
2022-11-04T04:13:23.657Z,0.73
2022-11-04T04:16:03.031Z,0.83
2022-11-04T04:18:36.168Z,1.20
2022-11-04T04:21:06.712Z,0.80
2022-11-04T04:23:55.067Z,0.77
2022-11-04T04:26:43.108Z,1.60
2022-11-04T04:29:10.937Z,1.43
2022-11-04T04:31:52.406Z,1.03
2022-11-04T04:34:24.956Z,1.20
2022-11-04T04:37:20.297Z,0.80
2022-11-04T04:40:23.868Z,0.80
2022-11-04T04:43:11.976Z,1.40
2022-11-04T04:45:42.616Z,1.07
2022-11-04T04:48:12.330Z,1.33
2022-11-04T04:50:45.894Z,1.33
2022-11-04T04:53:12.787Z,3.50
2022-11-04T04:55:41.744Z,1.20
2022-11-04T04:58:09.168Z,0.80
2022-11-04T05:00:35.951Z,0.87
2022-11-04T05:03:02.796Z,0.80
2022-11-04T05:05:29.883Z,0.50
2022-11-04T05:08:03.503Z,1.10
2022-11-04T05:10:30.215Z,0.70
2022-11-04T05:13:15.870Z,0.63
2022-11-04T05:15:42.783Z,0.90
2022-11-04T05:18:10.004Z,1.87
2022-11-04T05:20:38.444Z,0.93
2022-11-04T05:23:05.245Z,1.53
2022-11-04T05:25:32.015Z,2.20
2022-11-04T05:28:02.392Z,1.07
2022-11-04T05:30:29.667Z,1.73
2022-11-04T05:32:59.967Z,1.60
2022-11-04T05:35:30.538Z,1.93
2022-11-04T05:37:57.377Z,1.47
2022-11-04T05:40:25.079Z,2.30
2022-11-04T05:42:51.803Z,1.43
2022-11-04T05:45:18.619Z,1.90
2022-11-04T05:47:45.341Z,5.10
2022-11-04T05:50:12.102Z,2.10
2022-11-04T05:52:38.885Z,1.30
2022-11-04T05:55:06.131Z,1.33
2022-11-04T05:57:32.897Z,4.13
2022-11-04T05:59:59.575Z,11.43
2022-11-04T06:02:26.415Z,1.60
2022-11-04T06:04:53.259Z,2.10
2022-11-04T06:07:19.972Z,1.23
2022-11-04T06:09:46.671Z,1.30
2022-11-04T06:12:15.294Z,1.87
2022-11-04T06:14:45.105Z,1.37
2022-11-04T06:17:20.721Z,0.80
2022-11-04T06:19:47.880Z,2.97
2022-11-04T06:22:17.050Z,1.70
2022-11-04T06:24:44.242Z,2.63
2022-11-04T06:27:11.609Z,7.03
2022-11-04T06:29:41.040Z,2.67
2022-11-04T06:32:09.952Z,2.00
2022-11-04T06:34:36.920Z,3.20
2022-11-04T06:37:04.802Z,2.50
2022-11-04T06:39:31.630Z,2.23
2022-11-04T06:41:59.625Z,1.20
2022-11-04T06:44:29.187Z,1.80
2022-11-04T06:46:56.007Z,1.27
2022-11-04T06:49:23.498Z,4.00
2022-11-04T06:51:50.571Z,1.27
2022-11-04T06:54:18.099Z,1.70
2022-11-04T06:56:45.717Z,1.17
2022-11-04T06:59:16.553Z,1.70
2022-11-04T07:01:43.539Z,2.23
2022-11-04T07:04:10.429Z,2.13
2022-11-04T07:06:39.741Z,1.67
2022-11-04T07:09:12.107Z,3.63
2022-11-04T07:11:39.000Z,5.03
2022-11-04T07:14:05.834Z,3.00
2022-11-04T07:16:32.524Z,2.53
2022-11-04T07:18:59.402Z,2.73
2022-11-04T07:21:26.295Z,2.87
2022-11-04T07:23:53.310Z,3.10
2022-11-04T07:26:20.119Z,1.37
2022-11-04T07:28:47.071Z,2.60
2022-11-04T07:31:15.266Z,2.33
2022-11-04T07:33:42.366Z,2.23
2022-11-04T07:36:12.885Z,2.47
2022-11-04T07:38:39.675Z,4.53
2022-11-04T07:41:06.600Z,1.20
2022-11-04T07:43:33.440Z,2.20
2022-11-04T07:46:08.505Z,2.53
2022-11-04T07:48:36.663Z,1.90
2022-11-04T07:51:04.838Z,1.80
2022-11-04T07:53:32.063Z,1.80
2022-11-04T07:55:59.071Z,1.97
2022-11-04T07:58:25.893Z,1.87
2022-11-04T08:01:02.216Z,2.07
2022-11-04T08:03:29.096Z,2.10
2022-11-04T08:06:00.887Z,1.60
2022-11-04T08:08:28.591Z,2.13
2022-11-04T08:11:17.747Z,2.13
2022-11-04T08:13:45.972Z,2.27
2022-11-04T08:16:15.467Z,1.13
2022-11-04T08:18:43.522Z,1.47
2022-11-04T08:21:11.044Z,3.10
2022-11-04T08:23:38.557Z,1.77
2022-11-04T08:26:10.535Z,2.20
2022-11-04T08:28:37.732Z,2.73
2022-11-04T08:31:07.670Z,1.10
2022-11-04T08:33:35.878Z,4.30
2022-11-04T08:36:07.450Z,1.33
2022-11-04T08:38:34.519Z,2.33
2022-11-04T08:41:03.731Z,1.33
2022-11-04T08:43:30.535Z,1.23
2022-11-04T08:45:57.317Z,1.67
2022-11-04T08:48:24.116Z,2.77
2022-11-04T08:50:53.162Z,1.30
2022-11-04T08:53:20.210Z,2.93
2022-11-04T08:55:47.463Z,1.97
2022-11-04T08:58:14.354Z,2.00
2022-11-04T09:00:41.114Z,4.27
2022-11-04T09:03:08.666Z,2.07
2022-11-04T09:05:47.482Z,1.80
2022-11-04T09:08:18.109Z,2.83
2022-11-04T09:10:46.353Z,2.10
2022-11-04T09:13:13.786Z,2.27
2022-11-04T09:15:40.618Z,2.07
2022-11-04T09:18:08.100Z,3.30
2022-11-04T09:20:38.542Z,2.20
2022-11-04T09:23:06.958Z,7.30
2022-11-04T09:25:34.739Z,2.77
2022-11-04T09:28:01.744Z,2.13
2022-11-04T09:30:28.684Z,2.37
2022-11-04T09:32:55.526Z,2.20
2022-11-04T09:35:22.730Z,2.13
2022-11-04T09:37:50.668Z,2.47
2022-11-04T09:40:19.401Z,1.47
2022-11-04T09:43:04.906Z,2.50
2022-11-04T09:45:33.354Z,2.30
2022-11-04T09:48:08.006Z,2.10
2022-11-04T09:50:46.928Z,2.43
2022-11-04T09:53:34.240Z,3.50
2022-11-04T09:56:07.191Z,1.27
2022-11-04T09:58:38.417Z,1.90
2022-11-04T10:01:30.963Z,1.77
2022-11-04T10:04:14.558Z,10.50
2022-11-04T10:07:38.122Z,2.10
2022-11-04T10:10:28.507Z,4.40
2022-11-04T10:13:10.322Z,2.40
2022-11-04T10:15:54.081Z,2.50
2022-11-04T10:18:39.520Z,1.93
2022-11-04T10:21:25.121Z,4.03
2022-11-04T10:24:16.264Z,3.30
2022-11-04T10:26:45.439Z,3.50
2022-11-04T10:29:40.997Z,2.80
2022-11-04T10:32:14.452Z,3.60
2022-11-04T10:34:55.034Z,3.10
2022-11-04T10:37:21.934Z,13.60
2022-11-04T10:39:48.824Z,5.27
2022-11-04T10:42:22.230Z,2.47
2022-11-04T10:44:51.889Z,2.17
2022-11-04T10:47:42.083Z,2.03
2022-11-04T10:50:29.428Z,3.57
2022-11-04T10:53:22.764Z,1.97
2022-11-04T10:56:09.456Z,1.90
2022-11-04T10:58:42.941Z,2.60
2022-11-04T11:01:32.688Z,3.87
2022-11-04T11:04:00.553Z,2.13
2022-11-04T11:06:34.450Z,3.63
2022-11-04T11:09:21.250Z,4.93
2022-11-04T11:11:50.501Z,2.87
2022-11-04T11:14:18.778Z,2.70
2022-11-04T11:16:45.967Z,3.33
2022-11-04T11:19:17.670Z,2.23
2022-11-04T11:21:50.143Z,2.33
2022-11-04T11:24:20.116Z,2.80
2022-11-04T11:26:50.791Z,3.50
2022-11-04T11:29:31.737Z,1.90
2022-11-04T11:32:00.869Z,3.10
2022-11-04T11:34:38.964Z,3.03
2022-11-04T11:37:24.391Z,3.93
2022-11-04T11:39:51.355Z,2.73
2022-11-04T11:42:20.475Z,3.40
2022-11-04T11:44:54.675Z,5.00
2022-11-04T11:47:25.257Z,2.60
2022-11-04T11:50:19.487Z,3.60
2022-11-04T11:52:48.010Z,2.10
2022-11-04T11:55:26.407Z,5.87
2022-11-04T12:01:02.030Z,2.40
2022-11-04T12:10:24.011Z,3.30
2022-11-04T12:13:24.476Z,2.00
2022-11-04T12:16:11.443Z,2.50
2022-11-04T12:19:05.553Z,5.70
2022-11-04T12:21:36.929Z,2.43
2022-11-04T12:24:23.670Z,3.87
2022-11-04T12:27:31.430Z,2.47
2022-11-04T12:30:35.404Z,4.53
2022-11-04T12:33:23.183Z,2.80
2022-11-04T12:36:43.725Z,2.37
2022-11-04T12:39:39.413Z,3.10
2022-11-04T12:42:29.687Z,1.97
2022-11-04T12:45:09.135Z,2.67
2022-11-04T12:47:39.594Z,4.17
2022-11-04T12:50:24.790Z,4.23
2022-11-04T12:53:28.860Z,5.87
2022-11-04T12:56:24.713Z,5.73
2022-11-04T12:59:20.735Z,6.07
2022-11-04T13:01:55.713Z,3.10
2022-11-04T13:04:29.182Z,4.03
2022-11-04T13:07:14.576Z,8.30
2022-11-04T13:09:44.765Z,3.80
2022-11-04T13:12:22.269Z,4.40
2022-11-04T13:15:04.927Z,1.90
2022-11-04T13:17:39.376Z,2.70
2022-11-04T13:20:33.065Z,2.30
2022-11-04T13:23:05.769Z,3.80
2022-11-04T13:25:41.677Z,4.80
2022-11-04T13:28:13.672Z,2.30
2022-11-04T13:31:06.649Z,4.07
2022-11-04T13:33:43.582Z,6.10
2022-11-04T13:36:30.266Z,3.43
2022-11-04T13:39:06.270Z,5.10
2022-11-04T13:41:46.653Z,3.17
2022-11-04T13:44:23.931Z,3.63
2022-11-04T13:46:54.392Z,2.60
2022-11-04T13:49:41.412Z,3.93
2022-11-04T13:52:13.640Z,3.33
2022-11-04T13:54:43.094Z,3.63
2022-11-04T13:57:17.216Z,2.27
2022-11-04T14:00:16.244Z,1.60
2022-11-04T14:02:47.515Z,2.03
2022-11-04T14:05:37.116Z,2.33
2022-11-04T14:08:03.780Z,2.37
2022-11-04T14:10:50.416Z,2.80
2022-11-04T14:13:37.516Z,3.23
2022-11-04T14:16:10.091Z,2.40
2022-11-04T14:18:41.933Z,2.13
2022-11-04T14:21:15.468Z,2.60
2022-11-04T14:23:54.889Z,4.07
2022-11-04T14:26:25.608Z,2.60
2022-11-04T14:29:22.849Z,2.90
2022-11-04T14:31:58.452Z,2.50
2022-11-04T14:34:31.883Z,6.17
2022-11-04T14:37:01.732Z,2.10
2022-11-04T14:39:34.278Z,2.60
2022-11-04T14:42:03.261Z,2.30
2022-11-04T14:44:35.580Z,2.67
2022-11-04T14:47:28.901Z,5.53
2022-11-04T14:49:58.445Z,2.80
2022-11-04T14:52:42.901Z,1.83
2022-11-04T14:55:15.923Z,3.43
2022-11-04T14:57:54.238Z,3.00
2022-11-04T15:00:52.803Z,5.80
2022-11-04T15:04:04.539Z,3.53
2022-11-04T15:06:11.298Z,3.17
2022-11-04T15:08:45.121Z,3.50
2022-11-04T15:11:17.226Z,5.30
2022-11-04T15:13:48.760Z,7.80
2022-11-04T15:16:20.285Z,6.97
2022-11-04T15:18:48.194Z,4.77
2022-11-04T15:21:15.802Z,10.43
2022-11-04T15:23:46.343Z,3.40
2022-11-04T15:26:26.519Z,4.63
2022-11-04T15:28:58.835Z,4.40
2022-11-04T15:31:28.414Z,5.30
2022-11-04T15:34:00.410Z,3.53
2022-11-04T15:36:36.728Z,5.20
2022-11-04T15:39:16.278Z,5.13
2022-11-04T15:42:03.268Z,4.83
2022-11-04T15:44:32.925Z,5.47
2022-11-04T15:47:00.582Z,3.00
2022-11-04T15:49:30.086Z,5.60
2022-11-04T15:52:05.076Z,3.23
2022-11-04T15:54:37.734Z,5.57
2022-11-04T15:57:19.262Z,6.30
2022-11-04T16:00:08.702Z,3.20
2022-11-04T16:02:44.528Z,2.97
2022-11-04T16:05:11.249Z,3.80
2022-11-04T16:07:41.712Z,4.17
2022-11-04T16:10:31.072Z,3.20
2022-11-04T16:13:02.585Z,4.20
2022-11-04T16:15:32.349Z,6.33
2022-11-04T16:17:59.402Z,2.40
2022-11-04T16:20:26.339Z,3.30
2022-11-04T16:22:59.177Z,6.23
2022-11-04T16:25:31.139Z,4.40
2022-11-04T16:27:59.563Z,3.23
2022-11-04T16:30:27.711Z,2.27
2022-11-04T16:33:07.015Z,3.70
2022-11-04T16:35:33.942Z,3.70
2022-11-04T16:38:01.344Z,3.87
2022-11-04T16:40:28.301Z,4.50
2022-11-04T16:42:55.066Z,10.93
2022-11-04T16:45:29.181Z,19.67
2022-11-04T16:47:56.967Z,3.17
2022-11-04T16:50:24.682Z,5.37
2022-11-04T16:52:51.532Z,4.83
2022-11-04T16:55:19.182Z,3.40
2022-11-04T16:57:46.868Z,5.67
2022-11-04T17:00:25.041Z,3.03
2022-11-04T17:02:52.549Z,2.93
2022-11-04T17:05:20.595Z,2.77
2022-11-04T17:07:54.258Z,2.63
2022-11-04T17:10:27.028Z,5.10
2022-11-04T17:12:53.760Z,4.93
2022-11-04T17:15:21.869Z,10.27
2022-11-04T17:17:48.753Z,7.45
2022-11-04T17:20:18.000Z,6.03
2022-11-04T17:22:46.769Z,6.60
2022-11-04T17:25:20.356Z,8.77
2022-11-04T17:27:47.556Z,3.43
2022-11-04T17:30:15.045Z,2.90
2022-11-04T17:32:42.430Z,4.00
2022-11-04T17:35:11.615Z,4.43
2022-11-04T17:37:38.370Z,5.67
2022-11-04T17:40:06.740Z,6.90
2022-11-04T17:42:52.121Z,4.25
2022-11-04T17:45:18.879Z,4.28
2022-11-04T17:47:46.399Z,4.67
2022-11-04T17:50:13.855Z,4.60
2022-11-04T17:52:42.192Z,4.20
2022-11-04T17:55:15.359Z,6.90
2022-11-04T17:57:43.634Z,5.70
2022-11-04T18:00:14.185Z,8.90
2022-11-04T18:02:41.636Z,5.13
2022-11-04T18:05:09.510Z,8.13
2022-11-04T18:07:36.389Z,5.50
2022-11-04T18:10:03.372Z,8.13
2022-11-04T18:12:41.259Z,6.50
2022-11-04T18:15:11.428Z,8.40
2022-11-04T18:17:39.350Z,6.30
2022-11-04T18:20:13.315Z,9.20
2022-11-04T18:22:41.474Z,7.23
2022-11-04T18:25:09.279Z,12.52
2022-11-04T18:27:36.864Z,12.43
2022-11-04T18:30:03.870Z,9.80
2022-11-04T18:32:30.632Z,13.80
2022-11-04T18:34:57.731Z,12.30
2022-11-04T18:37:24.553Z,12.93
2022-11-04T18:39:51.318Z,9.00
2022-11-04T18:42:18.029Z,13.48
2022-11-04T18:44:44.761Z,8.83
2022-11-04T18:47:11.498Z,6.07
2022-11-04T18:49:38.297Z,4.70
2022-11-04T18:52:05.172Z,5.82
2022-11-04T18:54:31.929Z,7.30
2022-11-04T18:56:58.658Z,9.90
2022-11-04T18:59:25.403Z,8.67
2022-11-04T19:01:53.219Z,7.50
2022-11-04T19:04:20.211Z,6.07
2022-11-04T19:06:47.160Z,10.03
2022-11-04T19:09:45.593Z,7.17
2022-11-04T19:12:21.771Z,7.93
2022-11-04T19:14:49.170Z,9.10
2022-11-04T19:17:15.943Z,8.13
2022-11-04T19:19:42.928Z,6.37
2022-11-04T19:22:10.396Z,6.83
2022-11-04T19:24:37.402Z,6.17
2022-11-04T19:27:04.507Z,7.40
2022-11-04T19:29:32.906Z,8.97
2022-11-04T19:32:00.319Z,9.60
2022-11-04T19:34:27.073Z,6.70
2022-11-04T19:36:53.788Z,9.60
2022-11-04T19:39:20.591Z,9.20
2022-11-04T19:42:06.161Z,10.60
2022-11-04T19:44:32.983Z,11.60
2022-11-04T19:46:59.747Z,51.97
2022-11-04T19:49:31.106Z,40.53
2022-11-04T19:51:59.076Z,23.80
2022-11-04T19:54:26.896Z,14.00
2022-11-04T19:56:53.646Z,11.83
2022-11-04T19:59:20.470Z,9.57
2022-11-04T20:01:47.280Z,9.60
2022-11-04T20:04:14.155Z,9.30
2022-11-04T20:06:40.947Z,8.13
2022-11-04T20:09:11.051Z,7.87
2022-11-04T20:11:59.745Z,8.00
2022-11-04T20:14:28.109Z,11.20
2022-11-04T20:16:54.940Z,8.87
2022-11-04T20:19:23.138Z,10.37
2022-11-04T20:21:50.710Z,11.97
2022-11-04T20:24:17.540Z,17.77
2022-11-04T20:26:46.581Z,17.90
2022-11-04T20:29:16.264Z,13.55
2022-11-04T20:31:44.310Z,13.75
2022-11-04T20:34:13.377Z,11.43
2022-11-04T20:36:40.460Z,15.87
2022-11-04T20:39:12.720Z,10.17
2022-11-04T20:41:39.565Z,10.53
2022-11-04T20:44:06.318Z,11.60
2022-11-04T20:46:34.721Z,12.98
2022-11-04T20:49:03.045Z,15.23
2022-11-04T20:51:32.489Z,12.67
2022-11-04T20:54:02.106Z,19.13
2022-11-04T20:56:32.080Z,20.33
2022-11-04T20:59:00.086Z,11.68
2022-11-04T21:01:35.572Z,12.77
2022-11-04T21:04:08.342Z,11.63
2022-11-04T21:06:37.747Z,16.67
2022-11-04T21:09:06.015Z,11.10
2022-11-04T21:11:34.466Z,17.05
2022-11-04T21:14:02.342Z,20.45
2022-11-04T21:16:30.418Z,22.90
2022-11-04T21:18:57.880Z,19.23
2022-11-04T21:21:27.891Z,20.55
2022-11-04T21:23:59.056Z,20.92
2022-11-04T21:26:28.385Z,21.77
2022-11-04T21:28:56.376Z,14.68
2022-11-04T21:31:24.337Z,18.83
2022-11-04T21:33:52.413Z,12.57
2022-11-04T21:36:19.722Z,15.70
2022-11-04T21:38:46.810Z,22.67
2022-11-04T21:41:21.165Z,22.23
2022-11-04T21:43:47.841Z,21.20
2022-11-04T21:46:16.153Z,21.10
2022-11-04T21:48:43.252Z,17.60
2022-11-04T21:51:13.438Z,17.00
2022-11-04T21:53:40.523Z,16.50
2022-11-04T21:56:13.399Z,19.73
2022-11-04T21:58:40.611Z,12.30
2022-11-04T22:01:09.052Z,17.17
2022-11-04T22:03:35.829Z,15.70
2022-11-04T22:06:11.280Z,14.13
2022-11-04T22:08:39.329Z,11.02
2022-11-04T22:11:07.246Z,16.75
2022-11-04T22:13:34.219Z,20.90
2022-11-04T22:16:01.562Z,18.00
2022-11-04T22:18:30.770Z,15.27
2022-11-04T22:21:02.122Z,17.75
2022-11-04T22:23:28.970Z,21.55
2022-11-04T22:26:07.841Z,21.10
2022-11-04T22:28:34.721Z,15.55
2022-11-04T22:31:17.112Z,13.18
2022-11-04T22:33:44.132Z,10.65
2022-11-04T22:36:12.628Z,12.02
2022-11-04T22:38:40.630Z,13.13
2022-11-04T22:41:09.250Z,12.00
2022-11-04T22:43:36.022Z,9.88
2022-11-04T22:46:16.117Z,13.35
2022-11-04T22:48:43.089Z,17.88
2022-11-04T22:51:10.218Z,12.57
2022-11-04T22:53:37.247Z,11.13
2022-11-04T22:56:06.498Z,12.93
2022-11-04T22:58:33.368Z,14.48
2022-11-04T23:01:07.430Z,13.15
2022-11-04T23:03:34.615Z,17.38
2022-11-04T23:06:04.135Z,12.30
2022-11-04T23:08:33.122Z,13.52
2022-11-04T23:11:39.393Z,14.32
2022-11-04T23:14:24.899Z,13.20
2022-11-04T23:17:11.057Z,12.55
2022-11-04T23:19:38.713Z,13.82
2022-11-04T23:22:24.951Z,10.55
2022-11-04T23:25:07.141Z,10.18
2022-11-04T23:28:03.164Z,9.10
2022-11-04T23:30:36.669Z,21.70
2022-11-04T23:33:09.396Z,11.20
2022-11-04T23:36:02.286Z,12.80
2022-11-04T23:38:29.622Z,12.95
2022-11-04T23:41:20.439Z,9.68
2022-11-04T23:43:47.595Z,8.32
2022-11-04T23:46:36.582Z,11.32
2022-11-04T23:49:24.975Z,8.82
2022-11-04T23:52:10.254Z,10.65
2022-11-04T23:54:55.814Z,10.45
2022-11-04T23:57:41.183Z,8.73
